Time;durP1;ratioP1;P1;durP2;ratioP2;P2;SDS_P1;SDS_P2;PMS_P1;PMS_P2;Temp;Humidity;BMP_temperature;BMP_pressure;BME280_temperature;BME280_humidity;BME280_pressure;Samples;Min_cycle;Max_cycle;Signal;HPM_P1;HPM_P2
2022/01/01 00:00:33;;;;;;;46.55;17.45;;;;;;;12.02;100.00;99663.25;5009641;28;20026;-82
2022/01/01 00:02:59;;;;;;;35.83;14.15;;;;;;;12.03;100.00;99648.72;5002052;28;20116;-84
2022/01/01 00:05:25;;;;;;;33.00;11.38;;;;;;;12.08;100.00;99650.81;5010928;28;20029;-84
2022/01/01 00:07:51;;;;;;;40.97;12.23;;;;;;;12.07;99.79;99624.91;5033837;28;20036;-86
2022/01/01 00:10:19;;;;;;;68.78;17.75;;;;;;;12.03;100.00;99585.94;4999521;28;20037;-81
2022/01/01 00:12:46;;;;;;;44.10;16.60;;;;;;;11.96;100.00;99586.00;4989399;28;20037;-83
2022/01/01 00:15:12;;;;;;;58.05;17.88;;;;;;;12.01;100.00;99593.41;5011736;28;20116;-83
2022/01/01 00:17:38;;;;;;;69.22;17.95;;;;;;;12.01;100.00;99628.44;5035278;28;20041;-83
2022/01/01 00:20:04;;;;;;;58.90;14.85;;;;;;;11.95;100.00;99584.31;4990657;28;20040;-83
2022/01/01 00:22:30;;;;;;;50.25;13.90;;;;;;;11.97;100.00;99603.78;5019201;28;20491;-84
2022/01/01 00:24:56;;;;;;;44.55;12.52;;;;;;;11.96;100.00;99590.53;5022124;28;20129;-82
2022/01/01 00:27:21;;;;;;;39.78;13.88;;;;;;;12.01;99.23;99561.09;5023874;28;20384;-83
2022/01/01 00:29:47;;;;;;;40.78;10.45;;;;;;;11.90;99.65;99549.13;5019218;28;20120;-81
2022/01/01 00:32:13;;;;;;;49.45;14.77;;;;;;;11.87;100.00;99546.84;5003319;28;20037;-82
2022/01/01 00:34:38;;;;;;;43.25;14.13;;;;;;;11.85;99.71;99547.06;5020853;28;20507;-83
2022/01/01 00:37:05;;;;;;;36.75;10.57;;;;;;;11.78;99.92;99551.63;5002528;28;20103;-82
2022/01/01 00:39:30;;;;;;;41.05;10.77;;;;;;;11.72;99.85;99514.75;5049232;28;20033;-85
2022/01/01 00:41:59;;;;;;;35.13;10.68;;;;;;;11.82;99.89;99501.66;5000996;28;20045;-82
2022/01/01 00:44:24;;;;;;;45.47;12.75;;;;;;;11.73;99.60;99476.03;5008005;28;20033;-86
2022/01/01 00:46:50;;;;;;;35.22;11.85;;;;;;;11.88;99.12;99505.41;4990825;28;20039;-86
2022/01/01 00:49:15;;;;;;;24.75;9.93;;;;;;;11.90;98.95;99468.31;5007387;28;20416;-82
2022/01/01 00:51:41;;;;;;;34.67;9.15;;;;;;;11.87;98.76;99444.50;5014267;28;20480;-83
2022/01/01 00:54:07;;;;;;;36.95;10.80;;;;;;;11.97;98.16;99452.13;5022003;28;20238;-86
2022/01/01 00:56:32;;;;;;;40.70;11.43;;;;;;;12.04;98.07;99488.75;5004399;28;20041;-83
2022/01/01 00:58:58;;;;;;;33.45;10.27;;;;;;;12.01;97.45;99448.78;5010138;28;20037;-85
2022/01/01 01:01:24;;;;;;;29.88;9.48;;;;;;;11.98;97.66;99462.66;5016899;28;20333;-86
2022/01/01 01:03:49;;;;;;;39.70;10.48;;;;;;;12.02;97.54;99503.47;5004324;28;20030;-87
2022/01/01 01:06:15;;;;;;;40.63;9.60;;;;;;;12.31;95.71;99454.38;5005387;28;20572;-83
2022/01/01 01:08:41;;;;;;;40.70;12.57;;;;;;;12.34;94.95;99433.41;5006068;28;20036;-85
2022/01/01 01:11:08;;;;;;;31.58;10.55;;;;;;;12.32;94.71;99456.00;5019312;28;20038;-85
2022/01/01 01:13:35;;;;;;;43.83;10.23;;;;;;;12.29;95.17;99467.22;5022267;28;20113;-81
2022/01/01 01:16:01;;;;;;;32.40;9.38;;;;;;;12.25;95.36;99457.94;5020918;28;20476;-82
2022/01/01 01:18:27;;;;;;;26.80;7.90;;;;;;;12.29;95.28;99463.72;5018863;28;20033;-81
2022/01/01 01:20:55;;;;;;;23.83;6.97;;;;;;;12.39;94.36;99465.94;4984711;28;20822;-84
2022/01/01 01:23:20;;;;;;;23.70;9.68;;;;;;;12.50;93.68;99471.41;5001870;28;20104;-85
2022/01/01 01:25:46;;;;;;;31.05;7.28;;;;;;;12.60;93.11;99452.06;5018229;28;20033;-83
2022/01/01 01:28:14;;;;;;;26.13;8.25;;;;;;;12.68;92.25;99454.47;5035548;28;20044;-81
2022/01/01 01:30:40;;;;;;;23.33;8.00;;;;;;;12.63;92.53;99448.91;5018033;28;20177;-82
2022/01/01 01:33:09;;;;;;;16.33;6.28;;;;;;;12.68;92.76;99446.38;5021587;28;20140;-82
2022/01/01 01:35:36;;;;;;;28.23;8.73;;;;;;;12.59;92.71;99447.69;5016972;28;20037;-85
2022/01/01 01:38:05;;;;;;;31.50;8.23;;;;;;;12.65;92.64;99417.16;5019808;28;20041;-83
2022/01/01 01:40:31;;;;;;;44.60;10.70;;;;;;;12.66;92.63;99456.56;5018845;28;20140;-83
2022/01/01 01:42:56;;;;;;;44.03;10.45;;;;;;;12.67;92.64;99468.16;5013373;28;20383;-86
2022/01/01 01:45:27;;;;;;;26.50;9.20;;;;;;;12.71;92.00;99431.63;5021300;28;20041;-85
2022/01/01 01:47:52;;;;;;;29.73;8.50;;;;;;;12.79;91.52;99433.22;4989129;28;20041;-83
2022/01/01 01:50:19;;;;;;;37.95;8.35;;;;;;;12.74;91.85;99448.19;5007514;28;20040;-87
2022/01/01 01:52:49;;;;;;;44.13;8.68;;;;;;;12.72;91.47;99414.38;5027732;28;20464;-85
2022/01/01 01:55:15;;;;;;;31.45;7.32;;;;;;;12.81;91.58;99415.75;5051339;28;20071;-83
2022/01/01 01:57:41;;;;;;;33.63;8.20;;;;;;;12.84;91.32;99417.19;5009631;28;20045;-83
2022/01/01 02:03:03;;;;;;;42.90;8.13;;;;;;;12.87;91.30;99403.25;4994389;28;20060;-84
2022/01/01 02:05:29;;;;;;;27.05;7.00;;;;;;;12.86;91.42;99390.78;5009310;28;20091;-83
2022/01/01 02:07:57;;;;;;;24.95;7.03;;;;;;;12.86;91.25;99412.38;5010628;28;20414;-82
2022/01/01 02:10:22;;;;;;;45.05;12.27;;;;;;;12.81;91.31;99398.72;5019338;28;20021;-83
2022/01/01 02:12:52;;;;;;;43.08;11.07;;;;;;;12.84;90.54;99347.06;4993499;28;20041;-84
2022/01/01 02:16:12;;;;;;;25.02;7.63;;;;;;;13.01;90.45;99376.94;5017951;28;20040;-82
2022/01/01 02:18:33;;;;;;;19.00;5.50;;;;;;;13.02;90.63;99357.00;5017638;28;20147;-84
2022/01/01 02:20:59;;;;;;;36.42;8.82;;;;;;;12.96;91.23;99353.31;5019576;28;20076;-84
2022/01/01 02:23:27;;;;;;;35.53;7.78;;;;;;;13.03;90.91;99347.88;5031924;28;20063;-83
2022/01/01 02:25:56;;;;;;;44.10;10.23;;;;;;;13.02;91.00;99325.47;4989037;28;20103;-84
2022/01/01 02:28:23;;;;;;;39.78;7.03;;;;;;;13.13;90.86;99343.59;5037943;28;20038;-85
2022/01/01 02:30:49;;;;;;;36.95;8.63;;;;;;;13.14;91.01;99317.41;5020400;28;20040;-83
2022/01/01 02:33:15;;;;;;;39.90;9.32;;;;;;;13.19;90.75;99349.94;5019645;28;20537;-83
2022/01/01 02:35:41;;;;;;;39.10;8.45;;;;;;;13.11;90.65;99301.69;5020695;28;20027;-83
2022/01/01 02:38:07;;;;;;;28.75;6.82;;;;;;;13.19;91.21;99304.88;5034636;28;20037;-82
2022/01/01 02:40:34;;;;;;;33.08;8.63;;;;;;;13.23;91.45;99288.22;5035224;28;20045;-86
2022/01/01 02:43:00;;;;;;;22.98;6.75;;;;;;;13.26;91.25;99301.25;5003148;28;20048;-82
2022/01/01 02:45:28;;;;;;;32.20;8.85;;;;;;;13.25;91.47;99299.63;5010483;28;20037;-85
2022/01/01 02:47:54;;;;;;;23.15;5.85;;;;;;;13.25;91.82;99296.91;5019516;28;20033;-86
2022/01/01 02:50:20;;;;;;;27.58;8.45;;;;;;;13.25;92.18;99310.41;5005725;28;20041;-85
2022/01/01 02:52:47;;;;;;;27.50;6.82;;;;;;;13.23;91.73;99240.47;4987524;28;20431;-83
2022/01/01 02:55:14;;;;;;;36.17;7.07;;;;;;;13.26;92.03;99258.06;5007642;28;20038;-83
2022/01/01 02:57:40;;;;;;;28.67;8.85;;;;;;;13.22;92.82;99270.38;5015232;28;20522;-82
2022/01/01 03:00:08;;;;;;;33.63;8.00;;;;;;;13.06;94.33;99245.69;5020613;28;20096;-83
2022/01/01 03:02:39;;;;;;;37.22;8.20;;;;;;;13.09;94.25;99256.03;5018006;28;20048;-86
2022/01/01 03:05:07;;;;;;;27.33;7.70;;;;;;;12.78;94.46;99222.03;5004462;28;20171;-82
2022/01/01 03:07:35;;;;;;;43.63;9.45;;;;;;;13.14;94.02;99255.34;5015780;28;20037;-84
2022/01/01 03:10:00;;;;;;;35.20;9.25;;;;;;;13.26;93.22;99255.38;5003685;28;20069;-86
2022/01/01 03:12:26;;;;;;;28.33;7.93;;;;;;;13.34;93.04;99274.81;5007758;28;20037;-84
2022/01/01 03:14:52;;;;;;;42.50;8.30;;;;;;;13.40;92.54;99262.25;5027427;28;20030;-84
2022/01/01 03:17:17;;;;;;;29.33;7.45;;;;;;;13.43;92.32;99242.91;5013769;28;20029;-81
2022/01/01 03:19:43;;;;;;;32.80;7.70;;;;;;;13.49;92.48;99252.75;5024080;28;20102;-85
2022/01/01 03:22:08;;;;;;;43.05;10.25;;;;;;;13.51;92.48;99255.25;5025479;28;20041;-84
2022/01/01 03:24:34;;;;;;;39.63;9.30;;;;;;;13.56;92.03;99272.41;5000711;28;20106;-82
2022/01/01 03:27:01;;;;;;;31.67;10.13;;;;;;;13.57;92.26;99238.09;5021010;28;20021;-82
2022/01/01 03:29:30;;;;;;;45.40;13.23;;;;;;;13.56;92.33;99239.16;5000909;28;20042;-87
2022/01/01 03:31:56;;;;;;;42.30;6.60;;;;;;;13.53;92.35;99221.56;5029268;28;20041;-83
2022/01/01 03:34:21;;;;;;;40.50;10.82;;;;;;;13.55;92.60;99222.16;5017012;28;20025;-81
2022/01/01 03:36:47;;;;;;;36.40;8.88;;;;;;;13.52;92.63;99203.72;4988359;28;20029;-84
2022/01/01 03:39:13;;;;;;;29.98;8.50;;;;;;;13.69;91.93;99190.34;5030195;28;20037;-83
2022/01/01 03:41:38;;;;;;;40.65;8.68;;;;;;;13.67;92.27;99213.22;5011710;28;20364;-82
2022/01/01 03:44:04;;;;;;;39.95;11.48;;;;;;;13.60;92.92;99222.28;5018375;28;20503;-81
2022/01/01 03:46:30;;;;;;;44.45;9.85;;;;;;;13.59;92.56;99228.72;5020778;28;20037;-84
2022/01/01 03:48:56;;;;;;;45.97;10.30;;;;;;;13.60;93.02;99219.56;5007468;28;20057;-82
2022/01/01 03:51:21;;;;;;;30.13;6.45;;;;;;;13.55;93.25;99229.44;5016379;28;20049;-81
2022/01/01 03:53:47;;;;;;;28.67;7.65;;;;;;;13.51;94.37;99230.94;5018958;28;20048;-82
2022/01/01 03:56:14;;;;;;;36.22;7.75;;;;;;;13.33;96.25;99218.34;5003076;28;20033;-82
2022/01/01 03:58:41;;;;;;;37.60;10.77;;;;;;;13.31;96.54;99212.34;5020407;28;20506;-86
2022/01/01 04:01:06;;;;;;;33.45;9.18;;;;;;;13.47;95.71;99218.94;5023013;28;20037;-84
2022/01/01 04:03:32;;;;;;;29.55;7.63;;;;;;;13.54;94.97;99209.69;5015057;28;20541;-84
2022/01/01 04:05:58;;;;;;;38.03;10.38;;;;;;;13.51;95.50;99193.97;5021505;28;22387;-85
2022/01/01 04:08:23;;;;;;;31.98;6.57;;;;;;;13.30;95.45;99164.81;5020313;28;20095;-83
2022/01/01 04:10:49;;;;;;;35.50;6.22;;;;;;;13.37;95.81;99189.84;5019671;28;20417;-83
2022/01/01 04:13:15;;;;;;;49.65;10.23;;;;;;;13.36;95.77;99172.81;4988170;28;20035;-84
2022/01/01 04:15:42;;;;;;;27.27;6.60;;;;;;;13.27;95.85;99149.91;5016796;28;20116;-86
2022/01/01 04:18:13;;;;;;;29.30;6.22;;;;;;;13.23;96.90;99172.16;5006136;28;20037;-83
2022/01/01 04:20:41;;;;;;;46.53;11.48;;;;;;;13.16;96.72;99165.00;4987764;28;20034;-83
2022/01/01 04:23:09;;;;;;;30.77;7.68;;;;;;;13.02;96.57;99130.34;5001857;28;20128;-82
2022/01/01 04:25:35;;;;;;;36.95;8.35;;;;;;;13.14;96.66;99137.41;5048258;28;20096;-86
2022/01/01 04:28:00;;;;;;;46.35;10.07;;;;;;;13.14;95.95;99160.88;5025367;28;20040;-83
2022/01/01 04:30:28;;;;;;;27.45;6.95;;;;;;;13.17;95.80;99155.84;5010927;28;20053;-82
2022/01/01 04:32:58;;;;;;;52.90;9.77;;;;;;;13.14;95.89;99158.19;5016932;28;20112;-82
2022/01/01 04:35:24;;;;;;;34.08;6.22;;;;;;;13.07;95.71;99174.50;5021403;28;20554;-83
2022/01/01 04:37:50;;;;;;;38.92;10.52;;;;;;;13.11;95.93;99154.06;5023565;28;20419;-84
2022/01/01 04:40:15;;;;;;;37.88;10.63;;;;;;;13.16;95.07;99137.19;5026575;28;20025;-86
2022/01/01 04:42:41;;;;;;;32.80;8.18;;;;;;;13.37;94.60;99165.53;5026079;28;20430;-86
2022/01/01 04:45:07;;;;;;;36.72;6.10;;;;;;;13.45;94.19;99153.59;5010234;28;20065;-82
2022/01/01 04:47:33;;;;;;;29.98;8.48;;;;;;;12.95;100.00;99174.44;5006415;28;20048;-82
2022/01/01 04:49:58;;;;;;;48.40;10.75;;;;;;;12.48;100.00;99168.06;5012300;28;20033;-83
2022/01/01 04:52:24;;;;;;;24.30;6.55;;;;;;;12.28;100.00;99174.53;4993614;28;20026;-83
2022/01/01 04:54:50;;;;;;;27.35;7.45;;;;;;;12.05;100.00;99166.28;5002513;28;20491;-84
2022/01/01 04:57:15;;;;;;;24.27;7.10;;;;;;;11.84;100.00;99192.56;5008150;28;20033;-82
2022/01/01 04:59:42;;;;;;;11.68;3.63;;;;;;;11.76;100.00;99200.94;5008035;28;20034;-83
2022/01/01 05:02:07;;;;;;;10.48;2.75;;;;;;;11.77;100.00;99215.22;5022960;28;20438;-83
2022/01/01 05:04:35;;;;;;;14.93;3.97;;;;;;;11.73;100.00;99225.63;5026447;28;20029;-83
2022/01/01 05:07:01;;;;;;;22.65;5.00;;;;;;;11.76;100.00;99235.94;5037829;28;20038;-84
2022/01/01 05:09:30;;;;;;;16.73;5.15;;;;;;;11.75;100.00;99231.63;5026584;28;20034;-83
2022/01/01 05:11:55;;;;;;;24.40;6.22;;;;;;;11.79;100.00;99240.06;5023415;28;20038;-83
2022/01/01 05:14:21;;;;;;;21.95;4.28;;;;;;;11.78;100.00;99252.72;5016387;28;20076;-83
2022/01/01 05:16:47;;;;;;;11.93;3.17;;;;;;;11.69;100.00;99256.72;4993057;28;20442;-83
2022/01/01 05:19:14;;;;;;;15.27;4.40;;;;;;;11.58;100.00;99239.41;5017872;28;20041;-84
2022/01/01 05:21:39;;;;;;;24.45;3.45;;;;;;;11.60;100.00;99260.72;5016015;28;20053;-84
2022/01/01 05:24:08;;;;;;;11.00;2.88;;;;;;;11.68;100.00;99286.56;5017960;28;20501;-84
2022/01/01 05:26:34;;;;;;;11.48;2.33;;;;;;;11.62;100.00;99290.97;5022148;28;20029;-82
2022/01/01 05:28:59;;;;;;;8.15;2.88;;;;;;;11.47;100.00;99280.50;5016818;28;20040;-83
2022/01/01 05:31:26;;;;;;;10.25;2.58;;;;;;;11.45;100.00;99293.34;5005812;28;20040;-82
2022/01/01 05:33:52;;;;;;;8.65;2.55;;;;;;;11.44;100.00;99310.53;5012954;28;20053;-83
2022/01/01 05:36:19;;;;;;;16.48;3.30;;;;;;;11.36;100.00;99290.09;5018428;28;20053;-84
2022/01/01 05:38:45;;;;;;;12.43;2.40;;;;;;;11.51;100.00;99330.16;5011785;28;20530;-84
2022/01/01 05:41:11;;;;;;;9.55;2.03;;;;;;;11.40;100.00;99326.28;5024629;28;20506;-84
2022/01/01 05:43:37;;;;;;;14.98;2.42;;;;;;;11.45;100.00;99353.38;5049934;28;20088;-83
2022/01/01 05:46:03;;;;;;;6.75;1.75;;;;;;;11.47;100.00;99363.13;4995455;28;20033;-83
2022/01/01 05:48:29;;;;;;;8.95;3.00;;;;;;;11.50;100.00;99346.53;4990027;28;20051;-83
2022/01/01 05:50:55;;;;;;;5.53;2.38;;;;;;;11.51;100.00;99361.63;5019863;28;20271;-85
2022/01/01 05:53:21;;;;;;;13.48;3.13;;;;;;;11.49;100.00;99367.25;5021043;28;20679;-83
2022/01/01 05:55:47;;;;;;;10.60;2.80;;;;;;;11.45;100.00;99380.28;5046431;28;20053;-85
2022/01/01 05:58:13;;;;;;;5.93;1.92;;;;;;;11.48;100.00;99402.44;5045393;28;20060;-84
2022/01/01 06:00:39;;;;;;;6.10;2.28;;;;;;;11.39;100.00;99388.41;4992759;28;20156;-83
2022/01/01 06:03:05;;;;;;;25.05;4.38;;;;;;;11.56;100.00;99386.03;5027550;28;20044;-85
2022/01/01 06:05:31;;;;;;;23.20;3.92;;;;;;;11.57;100.00;99382.31;5017988;28;20510;-83
2022/01/01 06:07:57;;;;;;;15.65;3.88;;;;;;;11.49;100.00;99399.53;5019569;28;20501;-83
2022/01/01 06:10:24;;;;;;;6.22;1.33;;;;;;;11.58;100.00;99413.56;5017787;28;20029;-84
2022/01/01 06:12:50;;;;;;;19.38;4.20;;;;;;;11.53;100.00;99422.28;5023886;28;20082;-84
2022/01/01 06:15:16;;;;;;;12.20;1.88;;;;;;;11.57;100.00;99438.84;5042820;28;20410;-82
2022/01/01 06:17:42;;;;;;;25.77;4.75;;;;;;;11.54;100.00;99441.97;5027958;28;20029;-85
2022/01/01 06:20:08;;;;;;;22.50;3.88;;;;;;;11.44;100.00;99421.72;4989306;28;20033;-84
2022/01/01 06:22:34;;;;;;;29.65;5.63;;;;;;;11.45;100.00;99433.28;5007756;28;20527;-84
2022/01/01 06:24:59;;;;;;;22.85;3.92;;;;;;;11.44;100.00;99443.25;5006412;28;20108;-83
2022/01/01 06:27:25;;;;;;;31.35;4.90;;;;;;;11.45;100.00;99452.13;5021637;28;20132;-82
2022/01/01 06:29:51;;;;;;;16.50;4.07;;;;;;;11.35;100.00;99454.44;5051064;28;20061;-83
2022/01/01 06:32:17;;;;;;;32.05;5.65;;;;;;;11.23;100.00;99457.00;5015281;28;20403;-82
2022/01/01 06:34:42;;;;;;;24.88;4.32;;;;;;;11.06;100.00;99448.56;5008944;28;20072;-84
2022/01/01 06:37:08;;;;;;;27.38;5.05;;;;;;;11.05;100.00;99463.03;5009057;28;20061;-82
2022/01/01 06:39:34;;;;;;;23.33;4.38;;;;;;;11.08;100.00;99469.84;5025279;28;20035;-84
2022/01/01 06:41:59;;;;;;;27.02;5.22;;;;;;;11.10;100.00;99452.47;5013850;28;20038;-84
2022/01/01 06:44:28;;;;;;;24.70;4.28;;;;;;;11.01;100.00;99477.94;4985901;28;20041;-82
2022/01/01 06:46:55;;;;;;;19.83;3.60;;;;;;;10.93;100.00;99479.00;4997047;28;20064;-83
2022/01/01 06:49:20;;;;;;;28.15;4.78;;;;;;;10.85;100.00;99481.06;5020382;28;20041;-85
2022/01/01 06:51:46;;;;;;;29.08;4.47;;;;;;;10.87;100.00;99476.31;5003359;28;22404;-83
2022/01/01 06:54:12;;;;;;;22.05;4.85;;;;;;;10.93;100.00;99475.50;5007853;28;20472;-84
2022/01/01 06:56:38;;;;;;;20.20;3.05;;;;;;;11.00;100.00;99490.56;4988099;28;20037;-83
2022/01/01 06:59:04;;;;;;;24.92;3.55;;;;;;;10.97;100.00;99482.91;5007030;28;20048;-82
2022/01/01 07:01:29;;;;;;;16.30;4.45;;;;;;;10.73;100.00;99465.56;5015658;28;20067;-83
2022/01/01 07:03:56;;;;;;;32.47;4.60;;;;;;;10.95;100.00;99484.16;4999724;28;20064;-83
2022/01/01 07:06:25;;;;;;;20.67;4.63;;;;;;;11.06;100.00;99488.91;5016722;28;20061;-83
2022/01/01 07:08:50;;;;;;;31.90;6.78;;;;;;;11.02;100.00;99479.59;4998129;28;20514;-84
2022/01/01 07:11:16;;;;;;;19.92;5.30;;;;;;;11.16;100.00;99497.34;5024607;28;20125;-84
2022/01/01 07:13:42;;;;;;;20.52;3.15;;;;;;;11.08;100.00;99486.00;4989836;28;20096;-82
2022/01/01 07:16:07;;;;;;;21.45;4.53;;;;;;;11.11;100.00;99502.53;4993641;28;20064;-88
2022/01/01 07:18:33;;;;;;;25.98;4.88;;;;;;;11.05;100.00;99503.38;5004263;28;20041;-83
2022/01/01 07:20:59;;;;;;;28.38;6.15;;;;;;;10.95;100.00;99497.59;5021283;28;20475;-83
2022/01/01 07:23:24;;;;;;;18.25;3.33;;;;;;;11.04;100.00;99520.56;5025597;28;20109;-82
2022/01/01 07:25:50;;;;;;;28.33;5.00;;;;;;;11.03;100.00;99518.91;4994752;28;20029;-84
2022/01/01 07:28:16;;;;;;;18.92;2.47;;;;;;;11.02;100.00;99519.13;5025492;28;20034;-83
2022/01/01 07:30:45;;;;;;;16.33;3.47;;;;;;;10.85;100.00;99514.19;4995870;28;20037;-85
2022/01/01 07:33:15;;;;;;;13.73;3.00;;;;;;;10.93;97.54;99519.34;5025188;28;20038;-83
2022/01/01 07:35:41;;;;;;;24.83;4.75;;;;;;;10.89;99.32;99536.09;4992333;28;20045;-83
2022/01/01 07:38:07;;;;;;;21.23;3.88;;;;;;;10.79;97.82;99518.50;5013328;28;20479;-84
2022/01/01 07:40:34;;;;;;;25.10;5.60;;;;;;;10.83;96.66;99520.78;5026974;28;20025;-85
2022/01/01 07:43:14;;;;;;;22.17;3.80;;;;;;;10.94;96.65;99539.81;5010781;28;20033;-84
2022/01/01 07:45:40;;;;;;;20.55;4.10;;;;;;;10.89;95.35;99542.28;5005714;28;20136;-83
2022/01/01 07:48:07;;;;;;;30.08;3.42;;;;;;;10.91;94.83;99550.97;5038210;28;20553;-83
2022/01/01 07:50:33;;;;;;;16.27;3.55;;;;;;;10.89;93.77;99552.22;5034651;28;20030;-89
2022/01/01 07:52:59;;;;;;;17.67;3.53;;;;;;;10.85;93.31;99557.19;4991260;28;20046;-88
2022/01/01 07:55:25;;;;;;;17.95;4.88;;;;;;;10.88;92.66;99556.78;5006601;28;20072;-85
2022/01/01 07:57:50;;;;;;;29.23;4.07;;;;;;;10.92;92.37;99565.25;5005282;28;20030;-83
2022/01/01 08:00:16;;;;;;;15.15;4.15;;;;;;;10.77;92.56;99565.47;5014627;28;20106;-83
2022/01/01 08:02:43;;;;;;;23.60;4.25;;;;;;;10.85;92.55;99567.97;5025692;28;20442;-85
2022/01/01 08:05:09;;;;;;;25.55;4.72;;;;;;;10.87;91.32;99560.50;4992283;28;20041;-85
2022/01/01 08:07:35;;;;;;;26.25;4.93;;;;;;;11.02;91.31;99579.13;5025976;28;20494;-84
2022/01/01 08:10:01;;;;;;;14.20;4.32;;;;;;;11.11;90.55;99588.63;4993317;28;20037;-82
2022/01/01 08:12:26;;;;;;;16.27;2.83;;;;;;;11.09;90.43;99590.72;5009413;28;20080;-84
2022/01/01 08:14:56;;;;;;;20.60;3.90;;;;;;;11.19;90.00;99599.19;5005430;28;20044;-84
2022/01/01 08:17:23;;;;;;;12.40;3.17;;;;;;;11.22;89.85;99604.16;5010584;28;20154;-85
2022/01/01 08:19:49;;;;;;;13.48;3.08;;;;;;;11.22;89.45;99595.25;5027164;28;20033;-86
2022/01/01 08:22:14;;;;;;;19.65;3.80;;;;;;;11.24;88.86;99598.53;4990229;28;20512;-82
2022/01/01 08:24:41;;;;;;;18.70;3.95;;;;;;;11.33;88.27;99607.25;5022996;28;20392;-85
2022/01/01 08:27:07;;;;;;;14.07;3.38;;;;;;;11.36;88.60;99631.06;5028425;28;20108;-84
2022/01/01 08:29:32;;;;;;;11.77;3.35;;;;;;;11.15;88.62;99615.94;5012647;28;20120;-85
2022/01/01 08:31:58;;;;;;;12.93;3.70;;;;;;;11.09;89.40;99639.13;5028450;28;20108;-87
2022/01/01 08:34:24;;;;;;;17.75;4.10;;;;;;;10.96;89.83;99639.13;5058349;28;20506;-85
2022/01/01 08:36:50;;;;;;;24.65;5.75;;;;;;;10.87;90.23;99640.34;5010991;28;20042;-84
2022/01/01 08:39:16;;;;;;;22.48;3.60;;;;;;;10.90;89.99;99664.97;5025751;28;20479;-82
2022/01/01 08:41:45;;;;;;;13.93;2.65;;;;;;;10.89;90.50;99662.47;4997744;28;20045;-84
2022/01/01 08:44:12;;;;;;;11.68;2.47;;;;;;;10.95;90.40;99669.72;4998264;28;20519;-84
2022/01/01 08:46:38;;;;;;;14.25;2.90;;;;;;;10.89;89.67;99647.16;4998805;28;20060;-85
2022/01/01 08:49:05;;;;;;;13.02;3.15;;;;;;;11.00;89.40;99681.53;5014018;28;20064;-85
2022/01/01 08:51:33;;;;;;;23.80;5.40;;;;;;;10.90;89.78;99678.44;5014100;28;20087;-86
2022/01/01 08:53:59;;;;;;;17.58;3.75;;;;;;;10.84;89.98;99663.09;4995177;28;20057;-84
2022/01/01 08:56:24;;;;;;;19.13;3.17;;;;;;;10.83;90.03;99676.75;5026820;28;20450;-83
2022/01/01 08:58:50;;;;;;;13.80;3.10;;;;;;;10.82;90.35;99685.84;5013287;28;20037;-85
2022/01/01 09:01:16;;;;;;;24.00;3.17;;;;;;;10.78;90.74;99680.88;5032486;28;20021;-83
2022/01/01 09:03:41;;;;;;;21.05;4.85;;;;;;;10.85;90.75;99696.19;5030777;28;20025;-83
2022/01/01 09:06:08;;;;;;;16.40;2.88;;;;;;;10.82;90.81;99697.41;5011923;28;20373;-83
2022/01/01 09:08:37;;;;;;;22.17;3.58;;;;;;;10.83;90.99;99709.84;5013518;28;20045;-84
2022/01/01 09:11:03;;;;;;;19.00;3.90;;;;;;;10.92;90.60;99705.94;5033684;28;20055;-83
2022/01/01 09:13:29;;;;;;;21.67;3.17;;;;;;;10.93;90.10;99702.22;5011877;28;20034;-84
2022/01/01 09:15:55;;;;;;;15.98;2.60;;;;;;;10.85;90.59;99704.25;5014496;28;20042;-83
2022/01/01 09:18:21;;;;;;;15.90;3.50;;;;;;;10.87;90.89;99697.63;4997323;28;20052;-85
2022/01/01 09:20:48;;;;;;;30.13;5.85;;;;;;;11.14;90.23;99713.81;5028600;28;20442;-85
2022/01/01 09:23:14;;;;;;;16.10;2.83;;;;;;;11.25;89.17;99702.47;5013738;28;20068;-85
2022/01/01 09:25:40;;;;;;;13.13;3.05;;;;;;;11.29;88.87;99719.84;4997680;28;20033;-83
2022/01/01 09:28:06;;;;;;;15.20;2.92;;;;;;;11.25;88.46;99707.84;4995716;28;20056;-82
2022/01/01 09:30:32;;;;;;;19.30;3.47;;;;;;;11.13;89.05;99717.56;5016471;28;20094;-86
2022/01/01 09:32:57;;;;;;;24.23;3.92;;;;;;;10.83;89.98;99709.84;4996898;28;20033;-82
2022/01/01 09:35:23;;;;;;;21.80;4.18;;;;;;;10.59;91.11;99705.03;5011630;28;20057;-84
2022/01/01 09:37:51;;;;;;;22.27;3.15;;;;;;;10.52;91.57;99716.56;5007228;28;20545;-83
2022/01/01 09:40:18;;;;;;;24.98;3.00;;;;;;;10.45;91.88;99723.78;5022709;28;20546;-86
2022/01/01 09:42:44;;;;;;;17.13;3.00;;;;;;;10.41;92.62;99727.06;5030334;28;20026;-82
2022/01/01 09:45:10;;;;;;;15.25;3.55;;;;;;;10.28;92.75;99704.47;5029458;28;20144;-85
2022/01/01 09:47:36;;;;;;;22.55;2.70;;;;;;;10.71;91.76;99735.66;5012907;28;20120;-82
2022/01/01 09:50:05;;;;;;;13.57;3.25;;;;;;;10.88;90.92;99738.84;5011547;28;20506;-82
2022/01/01 09:52:31;;;;;;;22.55;2.63;;;;;;;10.80;90.87;99734.47;4984622;28;20029;-84
2022/01/01 09:54:57;;;;;;;31.58;4.10;;;;;;;10.63;91.17;99712.47;4994035;28;20052;-82
2022/01/01 09:57:23;;;;;;;21.25;2.42;;;;;;;10.75;91.30;99736.94;5028792;28;20373;-84
2022/01/01 09:59:48;;;;;;;19.63;3.83;;;;;;;10.75;91.29;99728.84;5028047;28;20037;-86
2022/01/01 10:02:14;;;;;;;21.65;4.25;;;;;;;11.03;90.61;99741.34;5027820;28;20053;-86
2022/01/01 10:04:51;;;;;;;13.10;2.38;;;;;;;11.14;90.50;99741.56;5012981;28;20044;-81
2022/01/01 10:07:18;;;;;;;28.33;5.10;;;;;;;11.25;89.92;99742.84;5010577;28;20380;-83
2022/01/01 10:09:44;;;;;;;10.25;3.47;;;;;;;11.41;88.90;99744.31;5028763;28;20136;-81
2022/01/01 10:12:14;;;;;;;19.23;5.30;;;;;;;11.47;89.32;99754.22;4984169;28;20049;-84
2022/01/01 10:14:42;;;;;;;11.70;3.00;;;;;;;11.64;89.01;99770.78;4987219;28;20026;-83
2022/01/01 10:17:19;;;;;;;22.13;4.88;;;;;;;11.76;88.72;99768.31;4996820;28;20033;-83
2022/01/01 10:19:50;;;;;;;15.77;4.38;;;;;;;11.83;88.75;99759.22;4997482;28;20040;-85
2022/01/01 10:22:18;;;;;;;21.67;3.60;;;;;;;11.84;88.28;99747.38;5026153;28;20042;-84
2022/01/01 10:27:42;;;;;;;5.88;2.30;;;;;;;11.94;88.67;99775.81;5027150;28;20053;-83
2022/01/01 10:27:43;;;;;;;20.42;3.15;;;;;;;11.92;88.72;99791.34;5015302;28;20037;-87
2022/01/01 10:30:17;;;;;;;19.02;6.38;;;;;;;11.90;88.89;99770.00;5012636;28;20034;-87
2022/01/01 10:33:02;;;;;;;19.38;3.40;;;;;;;11.66;88.88;99747.19;5028677;28;20503;-85
2022/01/01 10:35:29;;;;;;;18.90;4.30;;;;;;;11.62;89.30;99784.47;5011587;28;20033;-83
2022/01/01 10:37:57;;;;;;;23.85;3.45;;;;;;;11.56;89.51;99769.13;5008883;28;20073;-83
2022/01/01 10:40:27;;;;;;;29.38;5.32;;;;;;;11.42;90.45;99752.16;5028404;28;20392;-84
2022/01/01 10:42:53;;;;;;;23.55;4.07;;;;;;;11.56;90.06;99763.75;5027944;28;20121;-84
2022/01/01 10:45:54;;;;;;;28.63;4.68;;;;;;;11.85;89.36;99745.50;5024349;28;20112;-82
2022/01/01 10:48:38;;;;;;;21.10;4.28;;;;;;;11.77;88.74;99760.03;4999802;28;20124;-82
2022/01/01 10:51:09;;;;;;;18.67;4.50;;;;;;;11.88;89.38;99796.31;5006631;28;20487;-84
2022/01/01 10:53:35;;;;;;;14.70;2.42;;;;;;;12.06;88.67;99807.28;4984892;28;20037;-83
2022/01/01 10:56:16;;;;;;;16.15;3.17;;;;;;;12.05;88.75;99800.25;4992820;28;20040;-85
2022/01/01 10:58:42;;;;;;;22.65;3.75;;;;;;;11.95;88.90;99796.31;5009940;28;20045;-83
2022/01/01 11:01:08;;;;;;;23.98;6.38;;;;;;;11.86;89.71;99804.59;5060040;28;20091;-83
2022/01/01 11:03:38;;;;;;;27.20;4.60;;;;;;;12.13;88.65;99788.41;5029081;28;20029;-84
2022/01/01 11:06:06;;;;;;;27.95;4.05;;;;;;;12.29;88.17;99796.06;5013701;28;20037;-86
2022/01/01 11:08:35;;;;;;;21.60;3.95;;;;;;;12.42;88.24;99816.78;5026689;28;20029;-85
2022/01/01 11:11:02;;;;;;;19.33;3.75;;;;;;;12.81;85.71;99781.78;5005857;28;20124;-84
2022/01/01 11:13:29;;;;;;;20.95;4.45;;;;;;;13.04;84.73;99800.97;5013011;28;20053;-84
2022/01/01 11:15:54;;;;;;;12.27;3.72;;;;;;;13.13;84.14;99807.78;4997176;28;20043;-84
2022/01/01 11:18:21;;;;;;;21.90;5.03;;;;;;;13.04;83.91;99790.19;5013716;28;20079;-84
2022/01/01 11:20:47;;;;;;;19.27;3.85;;;;;;;13.10;83.79;99820.91;5009809;28;20435;-85
2022/01/01 11:23:13;;;;;;;18.83;3.83;;;;;;;12.91;83.92;99809.13;4994118;28;20037;-84